DAL9700 KORD-KJFK
Flight info
| Callsign | DAL9700 |
|---|---|
| Flight time | 1h 30m |
| Altitude | 33000 |
| Route | DUFEE LOGGR HAAKK DOXXY SOSIC JHW Q476 WLKES PUCKY1 |
| Aircraft | MD88/M-SDFGIRWY/S |
Departure
| Time | 2026-05-09 02:21 |
|---|---|
| Airport | Chicago O'Hare International Airport (KORD) |
Arrival
| Time | 2026-05-09 03:51 |
|---|---|
| Airport | John F. Kennedy International Airport (KJFK) |
| Time | Latitude | Longitude | Altitude | Speed | Heading |
|---|---|---|---|---|---|
| 2026-05-09 01:25 | 41.97386 | -87.90534 | 671 ft | 0 kts | 270° |
| 2026-05-09 01:51 | 41.97387 | -87.90512 | 667 ft | 4 kts | 248° |
| 2026-05-09 01:51 | 41.97400 | -87.90494 | 670 ft | 4 kts | 194° |
| 2026-05-09 01:51 | 41.97422 | -87.90491 | 671 ft | 4 kts | 180° |
| 2026-05-09 01:51 | 41.97446 | -87.90491 | 671 ft | 1 kts | 180° |
| 2026-05-09 01:56 | 41.97444 | -87.90491 | 671 ft | 1 kts | 180° |
| 2026-05-09 01:56 | 41.97426 | -87.90491 | 669 ft | 6 kts | 180° |
| 2026-05-09 01:56 | 41.97365 | -87.90491 | 671 ft | 11 kts | 180° |
| 2026-05-09 01:57 | 41.97290 | -87.90491 | 668 ft | 11 kts | 180° |
| 2026-05-09 01:57 | 41.97273 | -87.90491 | 671 ft | 0 kts | 181° |
| 2026-05-09 01:59 | 41.97271 | -87.90491 | 671 ft | 1 kts | 181° |
| 2026-05-09 01:59 | 41.97260 | -87.90492 | 671 ft | 2 kts | 184° |
| 2026-05-09 01:59 | 41.97243 | -87.90499 | 671 ft | 3 kts | 203° |
| 2026-05-09 01:59 | 41.97224 | -87.90518 | 671 ft | 0 kts | 231° |
| 2026-05-09 02:00 | 41.97221 | -87.90519 | 671 ft | 0 kts | 197° |
| 2026-05-09 02:00 | 41.97217 | -87.90516 | 669 ft | 0 kts | 154° |
| 2026-05-09 02:00 | 41.97216 | -87.90512 | 669 ft | 1 kts | 113° |
| 2026-05-09 02:01 | 41.97213 | -87.90503 | 669 ft | 0 kts | 124° |
| 2026-05-09 02:01 | 41.97209 | -87.90504 | 670 ft | 1 kts | 187° |
| 2026-05-09 02:01 | 41.97207 | -87.90509 | 670 ft | 1 kts | 248° |
| 2026-05-09 02:01 | 41.97215 | -87.90572 | 671 ft | 13 kts | 279° |
| 2026-05-09 02:02 | 41.97235 | -87.90713 | 669 ft | 16 kts | 292° |
| 2026-05-09 02:02 | 41.97303 | -87.90836 | 671 ft | 17 kts | 314° |
| 2026-05-09 02:02 | 41.97387 | -87.90944 | 671 ft | 17 kts | 318° |
| 2026-05-09 02:02 | 41.97478 | -87.91045 | 671 ft | 17 kts | 321° |
| 2026-05-09 02:03 | 41.97531 | -87.91159 | 671 ft | 12 kts | 257° |
| 2026-05-09 02:03 | 41.97531 | -87.91212 | 671 ft | 5 kts | 291° |
| 2026-05-09 02:03 | 41.97555 | -87.91255 | 671 ft | 6 kts | 316° |
| 2026-05-09 02:03 | 41.97592 | -87.91296 | 671 ft | 7 kts | 321° |
| 2026-05-09 02:04 | 41.97627 | -87.91345 | 671 ft | 6 kts | 321° |
| 2026-05-09 02:04 | 41.97636 | -87.91354 | 671 ft | 0 kts | 321° |
| 2026-05-09 02:04 | 41.97637 | -87.91356 | 670 ft | 1 kts | 321° |
| 2026-05-09 02:05 | 41.97645 | -87.91363 | 670 ft | 2 kts | 324° |
| 2026-05-09 02:05 | 41.97659 | -87.91377 | 671 ft | 3 kts | 324° |
| 2026-05-09 02:05 | 41.97681 | -87.91398 | 671 ft | 4 kts | 324° |
| 2026-05-09 02:05 | 41.97709 | -87.91427 | 671 ft | 6 kts | 320° |
| 2026-05-09 02:06 | 41.97742 | -87.91465 | 671 ft | 7 kts | 318° |
| 2026-05-09 02:06 | 41.97780 | -87.91511 | 671 ft | 8 kts | 318° |
| 2026-05-09 02:06 | 41.97822 | -87.91565 | 671 ft | 9 kts | 304° |
| 2026-05-09 02:07 | 41.97808 | -87.91649 | 671 ft | 1 kts | 236° |
| 2026-05-09 02:07 | 41.97803 | -87.91656 | 670 ft | 1 kts | 221° |
| 2026-05-09 02:07 | 41.97795 | -87.91661 | 671 ft | 1 kts | 195° |
| 2026-05-09 02:07 | 41.97783 | -87.91660 | 670 ft | 2 kts | 168° |
| 2026-05-09 02:08 | 41.97768 | -87.91652 | 671 ft | 3 kts | 156° |
| 2026-05-09 02:08 | 41.97730 | -87.91618 | 671 ft | 10 kts | 141° |
| 2026-05-09 02:08 | 41.97669 | -87.91550 | 671 ft | 12 kts | 140° |
| 2026-05-09 02:08 | 41.97606 | -87.91478 | 669 ft | 12 kts | 139° |
| 2026-05-09 02:09 | 41.97545 | -87.91408 | 670 ft | 10 kts | 139° |
| 2026-05-09 02:09 | 41.97491 | -87.91346 | 671 ft | 11 kts | 139° |
| 2026-05-09 02:09 | 41.97434 | -87.91280 | 671 ft | 11 kts | 139° |
| 2026-05-09 02:09 | 41.97374 | -87.91210 | 670 ft | 12 kts | 139° |
| 2026-05-09 02:10 | 41.97311 | -87.91141 | 670 ft | 12 kts | 142° |
| 2026-05-09 02:10 | 41.97247 | -87.91073 | 670 ft | 9 kts | 141° |
| 2026-05-09 02:10 | 41.97205 | -87.91028 | 671 ft | 8 kts | 141° |
| 2026-05-09 02:10 | 41.97153 | -87.90970 | 671 ft | 13 kts | 140° |
| 2026-05-09 02:11 | 41.97081 | -87.90913 | 670 ft | 7 kts | 188° |
| 2026-05-09 02:11 | 41.97063 | -87.90929 | 671 ft | 3 kts | 218° |
| 2026-05-09 02:11 | 41.97048 | -87.90947 | 670 ft | 0 kts | 224° |
| 2026-05-09 02:11 | 41.97048 | -87.90948 | 670 ft | 0 kts | 226° |
| 2026-05-09 02:12 | 41.97047 | -87.90948 | 670 ft | 0 kts | 226° |
| 2026-05-09 02:12 | 41.97044 | -87.90958 | 671 ft | 3 kts | 255° |
| 2026-05-09 02:12 | 41.97048 | -87.91023 | 670 ft | 8 kts | 291° |
| 2026-05-09 02:12 | 41.97085 | -87.91083 | 671 ft | 9 kts | 316° |
| 2026-05-09 02:13 | 41.97133 | -87.91144 | 670 ft | 10 kts | 316° |
| 2026-05-09 02:13 | 41.97184 | -87.91210 | 671 ft | 11 kts | 320° |
| 2026-05-09 02:13 | 41.97272 | -87.91301 | 671 ft | 21 kts | 323° |
| 2026-05-09 02:13 | 41.97407 | -87.91441 | 671 ft | 27 kts | 319° |
| 2026-05-09 02:14 | 41.97548 | -87.91603 | 671 ft | 27 kts | 319° |
| 2026-05-09 02:14 | 41.97689 | -87.91764 | 671 ft | 26 kts | 319° |
| 2026-05-09 02:14 | 41.97829 | -87.91924 | 671 ft | 26 kts | 320° |
| 2026-05-09 02:14 | 41.97964 | -87.92072 | 671 ft | 23 kts | 321° |
| 2026-05-09 02:15 | 41.98078 | -87.92208 | 671 ft | 20 kts | 304° |
| 2026-05-09 02:15 | 41.98099 | -87.92363 | 671 ft | 14 kts | 271° |
| 2026-05-09 02:15 | 41.98100 | -87.92473 | 671 ft | 9 kts | 271° |
| 2026-05-09 02:15 | 41.98101 | -87.92536 | 671 ft | 3 kts | 270° |
| 2026-05-09 02:16 | 41.98101 | -87.92538 | 671 ft | 1 kts | 270° |
| 2026-05-09 02:16 | 41.98106 | -87.92602 | 671 ft | 11 kts | 292° |
| 2026-05-09 02:16 | 41.98193 | -87.92651 | 671 ft | 10 kts | 0° |
| 2026-05-09 02:16 | 41.98211 | -87.92651 | 671 ft | 0 kts | 0° |
| 2026-05-09 02:17 | 41.98227 | -87.92651 | 671 ft | 8 kts | 0° |
| 2026-05-09 02:17 | 41.98305 | -87.92648 | 669 ft | 9 kts | 4° |
| 2026-05-09 02:18 | 41.98311 | -87.92648 | 669 ft | 0 kts | 4° |
| 2026-05-09 02:18 | 41.98315 | -87.92647 | 669 ft | 2 kts | 4° |
| 2026-05-09 02:18 | 41.98351 | -87.92645 | 669 ft | 11 kts | 1° |
| 2026-05-09 02:18 | 41.98394 | -87.92640 | 669 ft | 0 kts | 46° |
| 2026-05-09 02:19 | 41.98394 | -87.92637 | 669 ft | 1 kts | 70° |
| 2026-05-09 02:19 | 41.98394 | -87.92630 | 669 ft | 0 kts | 91° |
| 2026-05-09 02:19 | 41.98392 | -87.92513 | 668 ft | 31 kts | 91° |
| 2026-05-09 02:20 | 41.98383 | -87.92015 | 669 ft | 75 kts | 91° |
| 2026-05-09 02:20 | 41.98376 | -87.91100 | 669 ft | 123 kts | 90° |
| 2026-05-09 02:20 | 41.98378 | -87.89686 | 683 ft | 176 kts | 89° |
| 2026-05-09 02:20 | 41.98392 | -87.87927 | 1194 ft | 190 kts | 91° |
| 2026-05-09 02:21 | 41.98393 | -87.86272 | 1917 ft | 195 kts | 91° |
| 2026-05-09 02:21 | 41.98402 | -87.84396 | 2647 ft | 202 kts | 91° |
| 2026-05-09 02:21 | 41.98425 | -87.82490 | 3346 ft | 206 kts | 89° |
| 2026-05-09 02:21 | 41.98487 | -87.80574 | 3991 ft | 210 kts | 88° |
| 2026-05-09 02:22 | 41.98588 | -87.78583 | 4691 ft | 212 kts | 86° |
| 2026-05-09 02:22 | 41.98702 | -87.77272 | 5109 ft | 215 kts | 81° |
| 2026-05-09 02:22 | 41.99137 | -87.74583 | 5695 ft | 230 kts | 75° |
| 2026-05-09 02:22 | 41.99545 | -87.72451 | 6046 ft | 246 kts | 74° |
| 2026-05-09 02:23 | 42.00031 | -87.70069 | 5953 ft | 283 kts | 73° |
| 2026-05-09 02:23 | 42.00568 | -87.67451 | 6496 ft | 292 kts | 73° |
| 2026-05-09 02:23 | 42.01089 | -87.64804 | 7267 ft | 295 kts | 73° |
| 2026-05-09 02:23 | 42.01433 | -87.62992 | 7750 ft | 297 kts | 73° |
| 2026-05-09 02:24 | 42.01934 | -87.60270 | 8449 ft | 303 kts | 73° |
| 2026-05-09 02:24 | 42.02430 | -87.57496 | 9289 ft | 305 kts | 73° |
| 2026-05-09 02:24 | 42.02917 | -87.54706 | 10087 ft | 308 kts | 73° |
| 2026-05-09 02:24 | 42.03424 | -87.51819 | 10450 ft | 328 kts | 73° |
| 2026-05-09 02:25 | 42.03970 | -87.48732 | 10630 ft | 351 kts | 73° |
| 2026-05-09 02:25 | 42.04537 | -87.45500 | 10818 ft | 370 kts | 74° |
| 2026-05-09 02:25 | 42.05136 | -87.42046 | 11136 ft | 385 kts | 74° |
| 2026-05-09 02:25 | 42.05743 | -87.38514 | 11836 ft | 388 kts | 74° |
| 2026-05-09 02:26 | 42.06349 | -87.34976 | 12662 ft | 388 kts | 75° |
| 2026-05-09 02:26 | 42.06958 | -87.31434 | 13393 ft | 392 kts | 75° |
| 2026-05-09 02:26 | 42.07581 | -87.27834 | 13975 ft | 397 kts | 75° |
| 2026-05-09 02:26 | 42.08213 | -87.24181 | 14546 ft | 403 kts | 75° |
| 2026-05-09 02:27 | 42.08846 | -87.20497 | 15115 ft | 407 kts | 75° |
| 2026-05-09 02:27 | 42.09480 | -87.16756 | 15672 ft | 412 kts | 75° |
| 2026-05-09 02:27 | 42.10122 | -87.12969 | 16237 ft | 417 kts | 75° |
| 2026-05-09 02:27 | 42.10776 | -87.09143 | 16796 ft | 422 kts | 75° |
| 2026-05-09 02:28 | 42.11347 | -87.05328 | 17343 ft | 428 kts | 82° |
| 2026-05-09 02:28 | 42.11591 | -87.01326 | 17917 ft | 433 kts | 86° |
| 2026-05-09 02:28 | 42.11699 | -86.97237 | 18458 ft | 438 kts | 88° |
| 2026-05-09 02:28 | 42.11781 | -86.93118 | 18935 ft | 443 kts | 88° |
| 2026-05-09 02:29 | 42.11873 | -86.88938 | 19395 ft | 449 kts | 88° |
| 2026-05-09 02:29 | 42.11981 | -86.84712 | 19905 ft | 453 kts | 87° |
| 2026-05-09 02:29 | 42.12110 | -86.80453 | 20447 ft | 457 kts | 87° |
| 2026-05-09 02:29 | 42.12256 | -86.76154 | 20925 ft | 462 kts | 87° |
| 2026-05-09 02:30 | 42.12415 | -86.71807 | 21406 ft | 467 kts | 86° |
| 2026-05-09 02:30 | 42.12579 | -86.67429 | 21927 ft | 471 kts | 86° |
| 2026-05-09 02:30 | 42.12744 | -86.62995 | 22422 ft | 476 kts | 86° |
| 2026-05-09 02:30 | 42.12909 | -86.58521 | 22887 ft | 481 kts | 86° |
| 2026-05-09 02:31 | 42.13071 | -86.54000 | 23311 ft | 486 kts | 87° |
| 2026-05-09 02:31 | 42.13233 | -86.49431 | 23678 ft | 492 kts | 87° |
| 2026-05-09 02:31 | 42.13375 | -86.44802 | 24109 ft | 495 kts | 88° |
| 2026-05-09 02:31 | 42.13495 | -86.40141 | 24488 ft | 500 kts | 88° |
| 2026-05-09 02:32 | 42.13620 | -86.35443 | 24865 ft | 504 kts | 88° |
| 2026-05-09 02:32 | 42.13760 | -86.30695 | 25237 ft | 509 kts | 88° |
| 2026-05-09 02:32 | 42.13912 | -86.25922 | 25624 ft | 514 kts | 88° |
| 2026-05-09 02:32 | 42.14072 | -86.21158 | 25934 ft | 519 kts | 88° |
| 2026-05-09 02:33 | 42.14244 | -86.16199 | 26301 ft | 524 kts | 88° |
| 2026-05-09 02:33 | 42.14410 | -86.11292 | 26643 ft | 528 kts | 89° |
| 2026-05-09 02:33 | 42.14468 | -86.06323 | 26994 ft | 532 kts | 91° |
| 2026-05-09 02:33 | 42.14423 | -86.01334 | 27478 ft | 532 kts | 92° |
| 2026-05-09 02:34 | 42.14344 | -85.96358 | 27993 ft | 532 kts | 93° |
| 2026-05-09 02:34 | 42.14266 | -85.91373 | 28479 ft | 533 kts | 93° |
| 2026-05-09 02:34 | 42.14202 | -85.86362 | 28901 ft | 535 kts | 92° |
| 2026-05-09 02:34 | 42.14152 | -85.81351 | 29308 ft | 537 kts | 92° |
| 2026-05-09 02:35 | 42.14115 | -85.76323 | 29753 ft | 538 kts | 92° |
| 2026-05-09 02:35 | 42.14084 | -85.71282 | 30169 ft | 538 kts | 92° |
| 2026-05-09 02:35 | 42.14052 | -85.66255 | 30600 ft | 536 kts | 92° |
| 2026-05-09 02:35 | 42.14017 | -85.61240 | 31050 ft | 534 kts | 93° |
| 2026-05-09 02:36 | 42.13981 | -85.56255 | 31517 ft | 532 kts | 93° |
| 2026-05-09 02:36 | 42.13931 | -85.51286 | 31935 ft | 530 kts | 94° |
| 2026-05-09 02:36 | 42.13837 | -85.46329 | 32307 ft | 529 kts | 94° |
| 2026-05-09 02:36 | 42.13735 | -85.41431 | 32583 ft | 531 kts | 94° |
| 2026-05-09 02:37 | 42.13647 | -85.36444 | 32723 ft | 533 kts | 94° |
| 2026-05-09 02:37 | 42.13533 | -85.26482 | 32812 ft | 530 kts | 93° |
| 2026-05-09 02:38 | 42.13454 | -85.16734 | 32834 ft | 525 kts | 93° |
| 2026-05-09 02:38 | 42.13364 | -85.06841 | 32837 ft | 525 kts | 93° |
| 2026-05-09 02:39 | 42.13221 | -84.96995 | 32841 ft | 527 kts | 94° |
| 2026-05-09 02:39 | 42.13003 | -84.87126 | 32833 ft | 528 kts | 94° |
| 2026-05-09 02:40 | 42.12797 | -84.77228 | 32853 ft | 528 kts | 94° |
| 2026-05-09 02:40 | 42.12614 | -84.67428 | 32845 ft | 526 kts | 94° |
| 2026-05-09 02:41 | 42.12427 | -84.57570 | 32843 ft | 527 kts | 94° |
| 2026-05-09 02:41 | 42.12260 | -84.47620 | 32842 ft | 529 kts | 90° |
| 2026-05-09 02:42 | 42.13105 | -84.37834 | 32838 ft | 530 kts | 80° |
| 2026-05-09 02:42 | 42.14385 | -84.27980 | 32838 ft | 531 kts | 80° |
| 2026-05-09 02:43 | 42.15542 | -84.18216 | 32836 ft | 532 kts | 81° |
| 2026-05-09 02:43 | 42.16623 | -84.08351 | 32837 ft | 532 kts | 81° |
| 2026-05-09 02:44 | 42.17694 | -83.98472 | 32835 ft | 532 kts | 81° |
| 2026-05-09 02:44 | 42.18772 | -83.88630 | 32836 ft | 530 kts | 81° |
| 2026-05-09 02:45 | 42.19766 | -83.78825 | 32839 ft | 531 kts | 82° |
| 2026-05-09 02:45 | 42.20806 | -83.68897 | 32836 ft | 532 kts | 81° |
| 2026-05-09 02:46 | 42.21887 | -83.59034 | 32844 ft | 532 kts | 81° |
| 2026-05-09 02:46 | 42.22948 | -83.49141 | 32854 ft | 533 kts | 84° |
| 2026-05-09 02:47 | 42.23185 | -83.39136 | 32849 ft | 535 kts | 91° |
| 2026-05-09 02:47 | 42.23116 | -83.29096 | 32846 ft | 535 kts | 91° |
| 2026-05-09 02:48 | 42.23130 | -83.19051 | 32842 ft | 535 kts | 90° |
| 2026-05-09 02:48 | 42.23216 | -83.09022 | 32843 ft | 534 kts | 90° |
| 2026-05-09 02:49 | 42.23313 | -82.99004 | 32848 ft | 534 kts | 90° |
| 2026-05-09 02:49 | 42.23389 | -82.88976 | 32846 ft | 535 kts | 90° |
| 2026-05-09 02:50 | 42.23409 | -82.78938 | 32841 ft | 535 kts | 91° |
| 2026-05-09 02:50 | 42.23412 | -82.68896 | 32837 ft | 535 kts | 90° |
| 2026-05-09 02:51 | 42.23435 | -82.58852 | 32833 ft | 536 kts | 90° |
| 2026-05-09 02:51 | 42.23465 | -82.48810 | 32838 ft | 535 kts | 90° |
| 2026-05-09 02:52 | 42.23492 | -82.38792 | 32847 ft | 533 kts | 90° |
| 2026-05-09 02:52 | 42.23493 | -82.28782 | 32852 ft | 534 kts | 90° |
| 2026-05-09 02:53 | 42.23455 | -82.18751 | 32854 ft | 535 kts | 91° |
| 2026-05-09 02:53 | 42.23420 | -82.08709 | 32854 ft | 536 kts | 91° |
| 2026-05-09 02:54 | 42.23395 | -81.98647 | 32853 ft | 536 kts | 90° |
| 2026-05-09 02:54 | 42.23374 | -81.88663 | 32853 ft | 535 kts | 90° |
| 2026-05-09 02:55 | 42.23349 | -81.78648 | 32857 ft | 534 kts | 91° |
| 2026-05-09 02:55 | 42.23280 | -81.68648 | 32855 ft | 533 kts | 91° |
| 2026-05-09 02:56 | 42.23186 | -81.58631 | 32858 ft | 534 kts | 91° |
| 2026-05-09 02:56 | 42.23107 | -81.48607 | 32865 ft | 535 kts | 91° |
| 2026-05-09 02:57 | 42.23037 | -81.38557 | 32865 ft | 536 kts | 91° |
| 2026-05-09 02:57 | 42.22965 | -81.28507 | 32870 ft | 535 kts | 91° |
| 2026-05-09 02:58 | 42.22878 | -81.18484 | 32877 ft | 534 kts | 91° |
| 2026-05-09 02:58 | 42.22744 | -81.08470 | 32875 ft | 535 kts | 91° |
| 2026-05-09 02:59 | 42.22608 | -80.98431 | 32881 ft | 535 kts | 91° |
| 2026-05-09 02:59 | 42.22482 | -80.88384 | 32889 ft | 536 kts | 91° |
| 2026-05-09 03:00 | 42.22359 | -80.78313 | 32886 ft | 538 kts | 91° |
| 2026-05-09 03:00 | 42.22241 | -80.68215 | 32884 ft | 539 kts | 91° |
| 2026-05-09 03:01 | 42.22083 | -80.58110 | 32883 ft | 538 kts | 91° |
| 2026-05-09 03:01 | 42.21889 | -80.48034 | 32911 ft | 536 kts | 91° |
| 2026-05-09 03:02 | 42.21704 | -80.37924 | 32888 ft | 541 kts | 91° |
| 2026-05-09 03:02 | 42.21534 | -80.27755 | 32885 ft | 543 kts | 91° |
| 2026-05-09 03:03 | 42.21366 | -80.17707 | 32884 ft | 542 kts | 91° |
| 2026-05-09 03:03 | 42.21184 | -80.07591 | 32887 ft | 540 kts | 91° |
| 2026-05-09 03:04 | 42.20954 | -79.97458 | 32893 ft | 541 kts | 91° |
| 2026-05-09 03:04 | 42.20715 | -79.87308 | 32893 ft | 542 kts | 91° |
| 2026-05-09 03:05 | 42.20487 | -79.77153 | 32901 ft | 543 kts | 91° |
| 2026-05-09 03:05 | 42.20264 | -79.66973 | 32915 ft | 543 kts | 91° |
| 2026-05-09 03:06 | 42.20043 | -79.56796 | 32922 ft | 543 kts | 91° |
| 2026-05-09 03:06 | 42.19531 | -79.46640 | 32921 ft | 542 kts | 95° |
| 2026-05-09 03:07 | 42.19159 | -79.38217 | 32931 ft | 541 kts | 91° |
| 2026-05-09 03:07 | 42.19042 | -79.28048 | 32930 ft | 543 kts | 89° |
| 2026-05-09 03:08 | 42.18998 | -79.17877 | 32926 ft | 543 kts | 89° |
| 2026-05-09 03:08 | 42.18815 | -79.12799 | 32921 ft | 543 kts | 101° |
| 2026-05-09 03:08 | 42.17945 | -79.07866 | 32934 ft | 539 kts | 110° |
| 2026-05-09 03:09 | 42.15486 | -78.98321 | 32925 ft | 540 kts | 114° |
| 2026-05-09 03:09 | 42.12945 | -78.88793 | 32925 ft | 541 kts | 112° |
| 2026-05-09 03:10 | 42.10500 | -78.79189 | 32928 ft | 542 kts | 112° |
| 2026-05-09 03:10 | 42.08131 | -78.69574 | 32934 ft | 540 kts | 111° |
| 2026-05-09 03:11 | 42.05762 | -78.60060 | 32937 ft | 539 kts | 111° |
| 2026-05-09 03:11 | 42.03336 | -78.50515 | 32907 ft | 539 kts | 112° |
| 2026-05-09 03:12 | 42.00879 | -78.40990 | 32929 ft | 539 kts | 112° |
| 2026-05-09 03:12 | 41.98435 | -78.31468 | 32941 ft | 540 kts | 112° |
| 2026-05-09 03:13 | 41.94766 | -78.17178 | 32946 ft | 538 kts | 112° |
| 2026-05-09 03:13 | 41.92304 | -78.07583 | 32949 ft | 541 kts | 112° |
| 2026-05-09 03:14 | 41.89846 | -77.98114 | 32947 ft | 541 kts | 112° |
| 2026-05-09 03:14 | 41.87357 | -77.88607 | 32946 ft | 541 kts | 112° |
| 2026-05-09 03:15 | 41.84856 | -77.79075 | 32946 ft | 540 kts | 112° |
| 2026-05-09 03:15 | 41.82341 | -77.69587 | 32953 ft | 540 kts | 112° |
| 2026-05-09 03:16 | 41.79842 | -77.60100 | 32953 ft | 540 kts | 112° |
| 2026-05-09 03:16 | 41.77331 | -77.50622 | 32945 ft | 540 kts | 112° |
| 2026-05-09 03:17 | 41.74805 | -77.41146 | 32951 ft | 541 kts | 112° |
| 2026-05-09 03:17 | 41.72281 | -77.31655 | 32940 ft | 540 kts | 112° |
| 2026-05-09 03:18 | 41.69749 | -77.22204 | 32921 ft | 539 kts | 112° |
| 2026-05-09 03:18 | 41.67223 | -77.12788 | 32926 ft | 537 kts | 112° |
| 2026-05-09 03:19 | 41.64680 | -77.03411 | 32931 ft | 535 kts | 112° |
| 2026-05-09 03:19 | 41.62128 | -76.94067 | 32941 ft | 535 kts | 112° |
| 2026-05-09 03:20 | 41.59586 | -76.84728 | 32925 ft | 535 kts | 112° |
| 2026-05-09 03:20 | 41.57040 | -76.75395 | 32937 ft | 535 kts | 112° |
| 2026-05-09 03:21 | 41.54497 | -76.66070 | 32940 ft | 534 kts | 112° |
| 2026-05-09 03:21 | 41.51949 | -76.56757 | 32943 ft | 534 kts | 112° |
| 2026-05-09 03:22 | 41.49357 | -76.47468 | 32934 ft | 534 kts | 112° |
| 2026-05-09 03:22 | 41.46762 | -76.38184 | 32942 ft | 534 kts | 112° |
| 2026-05-09 03:23 | 41.44186 | -76.28915 | 32941 ft | 533 kts | 112° |
| 2026-05-09 03:23 | 41.41614 | -76.19656 | 32946 ft | 533 kts | 112° |
| 2026-05-09 03:24 | 41.39036 | -76.10402 | 32948 ft | 533 kts | 112° |
| 2026-05-09 03:24 | 41.36426 | -76.01167 | 32947 ft | 533 kts | 113° |
| 2026-05-09 03:25 | 41.33778 | -75.91970 | 32963 ft | 533 kts | 113° |
| 2026-05-09 03:25 | 41.32466 | -75.87354 | 32672 ft | 538 kts | 113° |
| 2026-05-09 03:25 | 41.31147 | -75.82658 | 32014 ft | 541 kts | 113° |
| 2026-05-09 03:26 | 41.29840 | -75.77986 | 31324 ft | 538 kts | 113° |
| 2026-05-09 03:26 | 41.28528 | -75.73332 | 30577 ft | 537 kts | 112° |
| 2026-05-09 03:26 | 41.27206 | -75.68688 | 29756 ft | 537 kts | 114° |
| 2026-05-09 03:26 | 41.25773 | -75.64119 | 28890 ft | 533 kts | 116° |
| 2026-05-09 03:27 | 41.24262 | -75.59635 | 28042 ft | 530 kts | 117° |
| 2026-05-09 03:27 | 41.22730 | -75.55203 | 27211 ft | 526 kts | 117° |
| 2026-05-09 03:27 | 41.21211 | -75.50803 | 26387 ft | 523 kts | 117° |
| 2026-05-09 03:27 | 41.19722 | -75.46444 | 25583 ft | 515 kts | 117° |
| 2026-05-09 03:28 | 41.18270 | -75.42139 | 24797 ft | 507 kts | 117° |
| 2026-05-09 03:28 | 41.16851 | -75.37900 | 24037 ft | 497 kts | 117° |
| 2026-05-09 03:28 | 41.15470 | -75.33757 | 23477 ft | 483 kts | 117° |
| 2026-05-09 03:28 | 41.14129 | -75.29753 | 23190 ft | 467 kts | 117° |
| 2026-05-09 03:29 | 41.12815 | -75.25854 | 23064 ft | 461 kts | 117° |
| 2026-05-09 03:29 | 41.11499 | -75.21973 | 23011 ft | 463 kts | 117° |
| 2026-05-09 03:29 | 41.10159 | -75.18040 | 23041 ft | 472 kts | 117° |
| 2026-05-09 03:29 | 41.08834 | -75.14113 | 22803 ft | 463 kts | 117° |
| 2026-05-09 03:30 | 41.07564 | -75.10359 | 22149 ft | 459 kts | 117° |
| 2026-05-09 03:30 | 41.06248 | -75.06482 | 21538 ft | 469 kts | 117° |
| 2026-05-09 03:30 | 41.04908 | -75.02566 | 21445 ft | 458 kts | 117° |
| 2026-05-09 03:30 | 41.03622 | -74.98793 | 21064 ft | 441 kts | 117° |
| 2026-05-09 03:31 | 41.02407 | -74.95217 | 21182 ft | 423 kts | 117° |
| 2026-05-09 03:31 | 41.01209 | -74.91680 | 21734 ft | 412 kts | 118° |
| 2026-05-09 03:31 | 41.00040 | -74.88235 | 22247 ft | 409 kts | 117° |
| 2026-05-09 03:31 | 40.99149 | -74.84679 | 22016 ft | 405 kts | 103° |
| 2026-05-09 03:32 | 40.98666 | -74.81005 | 21219 ft | 407 kts | 98° |
| 2026-05-09 03:32 | 40.98289 | -74.77272 | 20276 ft | 412 kts | 97° |
| 2026-05-09 03:32 | 40.97920 | -74.73493 | 19587 ft | 419 kts | 97° |
| 2026-05-09 03:32 | 40.97537 | -74.69610 | 19279 ft | 431 kts | 97° |
| 2026-05-09 03:33 | 40.97124 | -74.65660 | 19124 ft | 434 kts | 98° |
| 2026-05-09 03:33 | 40.96682 | -74.61728 | 19050 ft | 431 kts | 99° |
| 2026-05-09 03:33 | 40.96221 | -74.57811 | 19016 ft | 431 kts | 99° |
| 2026-05-09 03:33 | 40.95748 | -74.53897 | 19005 ft | 432 kts | 99° |
| 2026-05-09 03:34 | 40.95271 | -74.49972 | 18988 ft | 432 kts | 99° |
| 2026-05-09 03:34 | 40.94795 | -74.46049 | 18991 ft | 433 kts | 99° |
| 2026-05-09 03:34 | 40.94322 | -74.42117 | 18996 ft | 433 kts | 99° |
| 2026-05-09 03:34 | 40.93853 | -74.38185 | 18998 ft | 433 kts | 99° |
| 2026-05-09 03:35 | 40.93386 | -74.34259 | 18999 ft | 432 kts | 99° |
| 2026-05-09 03:35 | 40.92917 | -74.30342 | 19000 ft | 431 kts | 99° |
| 2026-05-09 03:35 | 40.92438 | -74.26436 | 18998 ft | 430 kts | 99° |
| 2026-05-09 03:35 | 40.91958 | -74.22556 | 18995 ft | 421 kts | 99° |
| 2026-05-09 03:36 | 40.91502 | -74.18857 | 18988 ft | 394 kts | 99° |
| 2026-05-09 03:36 | 40.91081 | -74.15379 | 18991 ft | 376 kts | 99° |
| 2026-05-09 03:36 | 40.90545 | -74.12000 | 18998 ft | 378 kts | 113° |
| 2026-05-09 03:36 | 40.89360 | -74.08899 | 19007 ft | 379 kts | 126° |
| 2026-05-09 03:37 | 40.87939 | -74.06025 | 18994 ft | 379 kts | 128° |
| 2026-05-09 03:37 | 40.86458 | -74.03152 | 18966 ft | 379 kts | 129° |
| 2026-05-09 03:37 | 40.84964 | -74.00293 | 18841 ft | 373 kts | 129° |
| 2026-05-09 03:37 | 40.83506 | -73.97490 | 18266 ft | 369 kts | 129° |
| 2026-05-09 03:38 | 40.82071 | -73.94685 | 17541 ft | 368 kts | 128° |
| 2026-05-09 03:38 | 40.80669 | -73.91874 | 16857 ft | 366 kts | 127° |
| 2026-05-09 03:38 | 40.79296 | -73.89062 | 16225 ft | 362 kts | 126° |
| 2026-05-09 03:38 | 40.78054 | -73.86185 | 15607 ft | 362 kts | 111° |
| 2026-05-09 03:39 | 40.77716 | -73.82969 | 15233 ft | 349 kts | 80° |
| 2026-05-09 03:39 | 40.78456 | -73.80036 | 14771 ft | 330 kts | 51° |
| 2026-05-09 03:39 | 40.79772 | -73.77621 | 14255 ft | 322 kts | 45° |
| 2026-05-09 03:39 | 40.81159 | -73.75301 | 13568 ft | 323 kts | 44° |
| 2026-05-09 03:40 | 40.82618 | -73.72949 | 12223 ft | 342 kts | 44° |
| 2026-05-09 03:40 | 40.84228 | -73.70505 | 10738 ft | 361 kts | 43° |
| 2026-05-09 03:40 | 40.85948 | -73.68014 | 9606 ft | 369 kts | 43° |
| 2026-05-09 03:40 | 40.87575 | -73.65689 | 10001 ft | 325 kts | 42° |
| 2026-05-09 03:41 | 40.89072 | -73.63520 | 9608 ft | 315 kts | 42° |
| 2026-05-09 03:41 | 40.90467 | -73.61474 | 9790 ft | 288 kts | 42° |
| 2026-05-09 03:41 | 40.91827 | -73.59474 | 9875 ft | 294 kts | 42° |
| 2026-05-09 03:41 | 40.93183 | -73.57485 | 9642 ft | 290 kts | 42° |
| 2026-05-09 03:42 | 40.94531 | -73.55497 | 9237 ft | 290 kts | 42° |
| 2026-05-09 03:42 | 40.95885 | -73.53511 | 8753 ft | 293 kts | 42° |
| 2026-05-09 03:42 | 40.97263 | -73.51503 | 8239 ft | 296 kts | 42° |
| 2026-05-09 03:42 | 40.98653 | -73.49484 | 7815 ft | 297 kts | 43° |
| 2026-05-09 03:43 | 40.99717 | -73.47130 | 7400 ft | 304 kts | 74° |
| 2026-05-09 03:43 | 40.99729 | -73.44393 | 7135 ft | 295 kts | 110° |
| 2026-05-09 03:43 | 40.98743 | -73.42133 | 6929 ft | 277 kts | 141° |
| 2026-05-09 03:43 | 40.97188 | -73.40779 | 6784 ft | 263 kts | 171° |
| 2026-05-09 03:44 | 40.95441 | -73.40577 | 6702 ft | 248 kts | 200° |
| 2026-05-09 03:44 | 40.93960 | -73.41537 | 6623 ft | 233 kts | 231° |
| 2026-05-09 03:44 | 40.93166 | -73.43339 | 6482 ft | 228 kts | 256° |
| 2026-05-09 03:44 | 40.92682 | -73.45362 | 6235 ft | 232 kts | 250° |
| 2026-05-09 03:45 | 40.91934 | -73.47259 | 5958 ft | 234 kts | 240° |
| 2026-05-09 03:45 | 40.90982 | -73.49010 | 5672 ft | 235 kts | 235° |
| 2026-05-09 03:45 | 40.89926 | -73.50660 | 5384 ft | 234 kts | 232° |
| 2026-05-09 03:45 | 40.88808 | -73.52230 | 5099 ft | 235 kts | 229° |
| 2026-05-09 03:46 | 40.87646 | -73.53755 | 4836 ft | 237 kts | 227° |
| 2026-05-09 03:46 | 40.86448 | -73.55264 | 4582 ft | 238 kts | 226° |
| 2026-05-09 03:46 | 40.85245 | -73.56758 | 4347 ft | 238 kts | 226° |
| 2026-05-09 03:46 | 40.84038 | -73.58248 | 4118 ft | 238 kts | 225° |
| 2026-05-09 03:47 | 40.82828 | -73.59739 | 3884 ft | 238 kts | 225° |
| 2026-05-09 03:47 | 40.81635 | -73.61217 | 3634 ft | 239 kts | 225° |
| 2026-05-09 03:47 | 40.80415 | -73.62756 | 3378 ft | 240 kts | 227° |
| 2026-05-09 03:47 | 40.79172 | -73.64236 | 3085 ft | 244 kts | 217° |
| 2026-05-09 03:48 | 40.77680 | -73.65276 | 2808 ft | 238 kts | 206° |
| 2026-05-09 03:48 | 40.76220 | -73.66122 | 2722 ft | 220 kts | 210° |
| 2026-05-09 03:48 | 40.74954 | -73.67127 | 2541 ft | 213 kts | 215° |
| 2026-05-09 03:48 | 40.73696 | -73.68219 | 2192 ft | 215 kts | 216° |
| 2026-05-09 03:49 | 40.72508 | -73.69216 | 2036 ft | 194 kts | 212° |
| 2026-05-09 03:49 | 40.71355 | -73.70056 | 1711 ft | 185 kts | 210° |
| 2026-05-09 03:49 | 40.70306 | -73.70884 | 1506 ft | 175 kts | 213° |
| 2026-05-09 03:49 | 40.69236 | -73.71775 | 1291 ft | 184 kts | 212° |
| 2026-05-09 03:50 | 40.68180 | -73.72610 | 1129 ft | 166 kts | 210° |
| 2026-05-09 03:50 | 40.67256 | -73.73328 | 916 ft | 146 kts | 211° |
| 2026-05-09 03:50 | 40.66417 | -73.74004 | 628 ft | 142 kts | 210° |
| 2026-05-09 03:50 | 40.65541 | -73.74683 | 335 ft | 149 kts | 211° |
| 2026-05-09 03:51 | 40.64627 | -73.75404 | 112 ft | 157 kts | 211° |
| 2026-05-09 03:51 | 40.63720 | -73.76114 | 23 ft | 141 kts | 211° |
| 2026-05-09 03:51 | 40.63019 | -73.76661 | 21 ft | 85 kts | 211° |
| 2026-05-09 03:51 | 40.62668 | -73.76935 | 24 ft | 36 kts | 211° |
| 2026-05-09 03:52 | 40.62584 | -73.77052 | 25 ft | 26 kts | 253° |
| 2026-05-09 03:52 | 40.62607 | -73.77219 | 22 ft | 9 kts | 322° |
| 2026-05-09 03:52 | 40.62613 | -73.77223 | 22 ft | 0 kts | 330° |
| 2026-05-09 03:52 | 40.62621 | -73.77232 | 22 ft | 4 kts | 314° |
| 2026-05-09 03:53 | 40.62637 | -73.77258 | 24 ft | 1 kts | 319° |
| 2026-05-09 03:53 | 40.62648 | -73.77264 | 22 ft | 2 kts | 339° |
| 2026-05-09 03:53 | 40.62667 | -73.77269 | 22 ft | 3 kts | 354° |
| 2026-05-09 03:53 | 40.62695 | -73.77268 | 22 ft | 5 kts | 7° |
| 2026-05-09 03:54 | 40.62720 | -73.77259 | 22 ft | 0 kts | 19° |
| 2026-05-09 03:55 | 40.62722 | -73.77258 | 22 ft | 1 kts | 20° |
| 2026-05-09 03:55 | 40.62727 | -73.77256 | 24 ft | 0 kts | 22° |
| 2026-05-09 03:56 | 40.62759 | -73.77235 | 24 ft | 9 kts | 29° |
| 2026-05-09 03:56 | 40.62831 | -73.77179 | 23 ft | 15 kts | 31° |
| 2026-05-09 03:56 | 40.62930 | -73.77101 | 23 ft | 18 kts | 31° |
| 2026-05-09 03:56 | 40.62986 | -73.77102 | 21 ft | 8 kts | 312° |
| 2026-05-09 03:57 | 40.63018 | -73.77164 | 22 ft | 9 kts | 302° |
| 2026-05-09 03:57 | 40.63053 | -73.77238 | 22 ft | 10 kts | 302° |
| 2026-05-09 03:57 | 40.63093 | -73.77327 | 22 ft | 12 kts | 300° |
| 2026-05-09 03:57 | 40.63138 | -73.77427 | 22 ft | 14 kts | 300° |
| 2026-05-09 03:58 | 40.63189 | -73.77540 | 23 ft | 15 kts | 301° |
| 2026-05-09 03:58 | 40.63236 | -73.77646 | 24 ft | 13 kts | 300° |
| 2026-05-09 03:58 | 40.63283 | -73.77750 | 24 ft | 14 kts | 300° |
| 2026-05-09 03:58 | 40.63337 | -73.77871 | 22 ft | 17 kts | 300° |
| 2026-05-09 03:59 | 40.63379 | -73.77963 | 21 ft | 0 kts | 301° |
| 2026-05-09 03:59 | 40.63384 | -73.77975 | 21 ft | 3 kts | 301° |
| 2026-05-09 03:59 | 40.63398 | -73.78007 | 21 ft | 5 kts | 301° |
| 2026-05-09 04:00 | 40.63420 | -73.78056 | 21 ft | 7 kts | 299° |
| 2026-05-09 04:00 | 40.63447 | -73.78121 | 22 ft | 9 kts | 299° |
| 2026-05-09 04:00 | 40.63481 | -73.78198 | 22 ft | 11 kts | 300° |
| 2026-05-09 04:00 | 40.63523 | -73.78290 | 22 ft | 13 kts | 301° |
| 2026-05-09 04:01 | 40.63586 | -73.78364 | 22 ft | 13 kts | 356° |
| 2026-05-09 04:01 | 40.63672 | -73.78351 | 21 ft | 13 kts | 354° |
| 2026-05-09 04:01 | 40.63719 | -73.78358 | 21 ft | 0 kts | 354° |
| 2026-05-09 04:03 | 40.63720 | -73.78358 | 21 ft | 0 kts | 354° |
| 2026-05-09 04:03 | 40.63729 | -73.78356 | 21 ft | 2 kts | 18° |
| 2026-05-09 04:03 | 40.63740 | -73.78342 | 21 ft | 1 kts | 57° |
| 2026-05-09 04:04 | 40.63740 | -73.78341 | 21 ft | 0 kts | 57° |
| 2026-05-09 04:04 | 40.63744 | -73.78332 | 21 ft | 2 kts | 63° |
| 2026-05-09 04:04 | 40.63773 | -73.78292 | 21 ft | 11 kts | 16° |
| 2026-05-09 04:05 | 40.63851 | -73.78257 | 21 ft | 9 kts | 58° |
| 2026-05-09 04:05 | 40.63855 | -73.78200 | 23 ft | 2 kts | 83° |
| 2026-05-09 04:05 | 40.63856 | -73.78191 | 22 ft | 1 kts | 83° |